Time;durP1;ratioP1;P1;durP2;ratioP2;P2;SDS_P1;SDS_P2;PMS_P1;PMS_P2;Temp;Humidity;BMP_temperature;BMP_pressure;BME280_temperature;BME280_humidity;BME280_pressure;Samples;Min_cycle;Max_cycle;Signal;HPM_P1;HPM_P2
2023/12/28 00:00:18;;;;;;;19.90;13.80;;;;;;;-1.35;100.00;98327.52;110341;1241;71915;-76
2023/12/28 00:03:07;;;;;;;26.90;17.20;;;;;;;-1.29;100.00;98330.02;110374;1239;69280;-76
2023/12/28 00:05:37;;;;;;;21.40;15.10;;;;;;;-1.29;100.00;98334.30;110345;1240;69203;-74
2023/12/28 00:08:08;;;;;;;20.30;14.40;;;;;;;-1.30;100.00;98340.30;110346;1241;59699;-75
2023/12/28 00:10:38;;;;;;;18.40;13.70;;;;;;;-1.32;100.00;98344.09;110233;1242;59689;-73
2023/12/28 00:13:08;;;;;;;20.30;12.90;;;;;;;-1.35;100.00;98349.58;110298;1241;72113;-75
2023/12/28 00:15:40;;;;;;;18.20;13.00;;;;;;;-1.37;100.00;98344.98;110261;1242;69749;-74
2023/12/28 00:18:11;;;;;;;14.60;11.50;;;;;;;-1.36;100.00;98345.31;110373;1241;69108;-74
2023/12/28 00:20:42;;;;;;;16.70;12.60;;;;;;;-1.31;100.00;98354.50;110335;1241;59734;-74
2023/12/28 00:23:12;;;;;;;18.00;13.30;;;;;;;-1.29;100.00;98360.31;110297;1241;60118;-74
2023/12/28 00:25:41;;;;;;;17.30;12.70;;;;;;;-1.33;100.00;98357.09;110304;1241;69497;-74
2023/12/28 00:28:12;;;;;;;14.60;10.60;;;;;;;-1.38;100.00;98360.21;110324;1242;69683;-74
2023/12/28 00:30:42;;;;;;;16.20;11.00;;;;;;;-1.42;100.00;98367.95;110350;1242;69275;-74
2023/12/28 00:33:13;;;;;;;27.90;17.60;;;;;;;-1.44;100.00;98372.08;110225;1241;59795;-74
2023/12/28 00:35:43;;;;;;;23.10;15.50;;;;;;;-1.55;100.00;98385.17;110320;1241;59737;-74
2023/12/28 00:38:13;;;;;;;39.90;26.30;;;;;;;-1.68;100.00;98389.05;110196;1241;71352;-74
2023/12/28 00:40:43;;;;;;;43.20;28.70;;;;;;;-1.83;100.00;98394.63;110370;1241;68987;-75
2023/12/28 00:43:13;;;;;;;48.20;31.20;;;;;;;-1.96;100.00;98398.31;110282;1244;68401;-74
2023/12/28 00:45:42;;;;;;;49.00;31.60;;;;;;;-2.08;100.00;98390.02;110115;1242;59698;-75
2023/12/28 00:48:13;;;;;;;46.70;29.70;;;;;;;-2.13;100.00;98388.17;110268;1242;59740;-74
2023/12/28 00:50:44;;;;;;;43.30;26.00;;;;;;;-2.16;100.00;98385.14;110326;1241;72003;-74
2023/12/28 00:53:13;;;;;;;35.70;23.10;;;;;;;-2.17;100.00;98381.21;110192;1242;69654;-74
2023/12/28 00:55:44;;;;;;;41.00;26.70;;;;;;;-2.19;100.00;98378.33;110330;1242;69708;-74
2023/12/28 00:58:15;;;;;;;;;;;;;;;-2.24;100.00;98376.47;110370;1241;59750;-73
2023/12/28 01:00:47;;;;;;;38.00;24.30;;;;;;;-2.27;100.00;98370.67;110319;1241;59721;-74
2023/12/28 01:03:20;;;;;;;34.30;22.70;;;;;;;-2.30;100.00;98370.88;110313;1246;70009;-73
2023/12/28 01:05:52;;;;;;;29.80;20.00;;;;;;;-2.32;100.00;98370.89;110362;1240;67520;-74
2023/12/28 01:08:27;;;;;;;28.00;17.20;;;;;;;-2.34;100.00;98372.27;110330;1241;69342;-74
2023/12/28 01:10:57;;;;;;;23.80;16.70;;;;;;;-2.34;100.00;98370.73;110227;1249;59820;-74
2023/12/28 01:13:30;;;;;;;22.30;14.80;;;;;;;-2.33;100.00;98370.20;110314;1240;59702;-74
2023/12/28 01:16:02;;;;;;;23.10;16.40;;;;;;;-2.31;100.00;98368.33;110305;1241;71345;-73
2023/12/28 01:18:33;;;;;;;18.10;13.70;;;;;;;-2.30;100.00;98375.50;110350;1241;69212;-74
2023/12/28 01:21:03;;;;;;;21.00;15.30;;;;;;;-2.32;100.00;98377.20;110300;1243;68398;-74
2023/12/28 01:23:33;;;;;;;21.70;14.90;;;;;;;-2.32;100.00;98379.59;110352;1241;59696;-74
2023/12/28 01:26:04;;;;;;;18.80;13.10;;;;;;;-2.32;100.00;98378.91;110244;1241;59747;-74
2023/12/28 01:28:35;;;;;;;20.20;14.30;;;;;;;-2.31;100.00;98372.77;110226;1242;71461;-74
2023/12/28 01:31:06;;;;;;;20.70;13.90;;;;;;;-2.30;100.00;98365.59;110208;1244;69302;-75
2023/12/28 01:33:40;;;;;;;19.50;12.40;;;;;;;-2.31;100.00;98358.60;110344;1241;69427;-75
2023/12/28 01:36:19;;;;;;;21.60;17.20;;;;;;;-2.32;100.00;98361.32;110246;1243;59747;-76
2023/12/28 01:38:55;;;;;;;20.20;12.70;;;;;;;-2.35;100.00;98358.61;110305;1240;59651;-76
2023/12/28 01:41:26;;;;;;;21.50;13.90;;;;;;;-2.40;100.00;98358.65;110260;1241;70629;-76
2023/12/28 01:43:56;;;;;;;21.30;14.80;;;;;;;-2.45;100.00;98359.35;110359;1241;69206;-74
2023/12/28 01:46:26;;;;;;;18.30;11.30;;;;;;;-2.50;100.00;98358.36;110360;1242;68698;-72
2023/12/28 01:49:01;;;;;;;19.30;13.60;;;;;;;-2.53;100.00;98355.15;110299;1242;59725;-75
2023/12/28 01:51:33;;;;;;;17.30;11.10;;;;;;;-2.55;100.00;98355.30;110381;1241;59618;-73
2023/12/28 01:54:04;;;;;;;14.80;12.20;;;;;;;-2.56;100.00;98348.65;110483;1241;70654;-74
2023/12/28 01:56:37;;;;;;;23.40;14.30;;;;;;;-2.56;100.00;98342.69;110502;1241;69341;-74
2023/12/28 01:59:09;;;;;;;18.10;11.90;;;;;;;-2.57;100.00;98339.63;110644;1241;69154;-74
2023/12/28 02:01:42;;;;;;;18.10;13.00;;;;;;;-2.57;100.00;98333.64;110429;1242;59671;-74
2023/12/28 02:04:13;;;;;;;23.70;15.30;;;;;;;-2.58;100.00;98334.86;110659;1241;59647;-74
2023/12/28 02:06:47;;;;;;;21.10;13.20;;;;;;;-2.61;100.00;98335.55;110434;1241;70651;-76
2023/12/28 02:09:19;;;;;;;17.30;12.10;;;;;;;-2.62;100.00;98333.17;110485;1241;69285;-74
2023/12/28 02:11:51;;;;;;;20.90;12.80;;;;;;;-2.60;100.00;98329.91;110492;1241;68524;-74
2023/12/28 02:14:23;;;;;;;19.00;14.00;;;;;;;-2.58;100.00;98333.99;110419;1242;59737;-74
2023/12/28 02:17:32;;;;;;;18.50;11.60;;;;;;;-2.57;100.00;98335.52;110476;1241;59623;-74
2023/12/28 02:20:12;;;;;;;16.80;10.30;;;;;;;-2.54;100.00;98334.31;110402;1241;71257;-75
2023/12/28 02:22:45;;;;;;;15.00;11.50;;;;;;;-2.51;100.00;98333.10;110428;1240;68709;-74
2023/12/28 02:25:17;;;;;;;15.70;11.80;;;;;;;-2.46;100.00;98332.73;110238;1242;69382;-74
2023/12/28 02:27:50;;;;;;;23.10;14.30;;;;;;;-2.41;100.00;98333.20;110294;1240;59699;-75
2023/12/28 02:30:27;;;;;;;19.40;13.60;;;;;;;-2.40;100.00;98328.27;110382;1241;59753;-74
2023/12/28 02:33:15;;;;;;;16.30;11.90;;;;;;;-2.38;100.00;98323.29;110328;1240;71392;-74
2023/12/28 02:36:05;;;;;;;20.90;13.60;;;;;;;-2.35;100.00;98320.72;110378;1241;69612;-75
2023/12/28 02:38:41;;;;;;;19.90;11.30;;;;;;;-2.34;100.00;98314.22;110344;1241;69322;-75
2023/12/28 02:41:14;;;;;;;15.70;11.10;;;;;;;-2.34;100.00;98307.05;110376;1241;59750;-75
2023/12/28 02:43:52;;;;;;;12.30;9.40;;;;;;;-2.34;100.00;98312.85;110341;1241;60118;-74
2023/12/28 02:46:26;;;;;;;11.70;8.30;;;;;;;-2.35;100.00;98311.33;110369;1241;70682;-74
2023/12/28 02:48:59;;;;;;;13.70;9.00;;;;;;;-2.37;100.00;98314.73;110232;1242;69200;-75
2023/12/28 02:51:35;;;;;;;11.70;8.80;;;;;;;-2.42;100.00;98300.77;110224;1241;69206;-75
2023/12/28 02:54:08;;;;;;;11.60;7.90;;;;;;;-2.45;100.00;98304.05;110456;1241;59673;-74
2023/12/28 02:56:43;;;;;;;13.20;9.00;;;;;;;-2.47;100.00;98304.40;110397;1241;59648;-73
2023/12/28 02:59:15;;;;;;;11.80;8.90;;;;;;;-2.49;100.00;98308.17;110256;1242;71454;-74
2023/12/28 03:01:46;;;;;;;16.10;9.70;;;;;;;-2.52;100.00;98304.95;110326;1240;68608;-74
2023/12/28 03:04:17;;;;;;;11.50;8.40;;;;;;;-2.53;100.00;98302.91;110384;1241;69357;-74
2023/12/28 03:06:48;;;;;;;16.10;10.70;;;;;;;-2.53;100.00;98302.74;110308;1241;59675;-74
2023/12/28 03:09:20;;;;;;;13.60;10.50;;;;;;;-2.54;100.00;98303.77;110291;1242;59659;-73
2023/12/28 03:11:51;;;;;;;20.20;13.30;;;;;;;-2.63;100.00;98300.75;110285;1241;71382;-74
2023/12/28 03:14:24;;;;;;;14.70;10.40;;;;;;;-2.70;100.00;98294.30;110308;1240;68314;-73
2023/12/28 03:16:56;;;;;;;15.40;11.40;;;;;;;-2.74;100.00;98299.45;110300;1240;68363;-74
2023/12/28 03:19:26;;;;;;;15.00;9.50;;;;;;;-2.77;100.00;98298.61;110306;1239;59760;-74
2023/12/28 03:22:00;;;;;;;10.90;8.30;;;;;;;-2.79;100.00;98292.83;110303;1241;59748;-74
2023/12/28 03:24:32;;;;;;;11.20;7.90;;;;;;;-2.81;100.00;98291.81;110278;1240;71723;-73
2023/12/28 03:27:06;;;;;;;12.00;8.60;;;;;;;-2.81;100.00;98288.74;110303;1241;68705;-73
2023/12/28 03:29:38;;;;;;;12.30;8.30;;;;;;;-2.81;100.00;98289.77;110394;1241;68563;-74
2023/12/28 03:32:12;;;;;;;13.00;10.40;;;;;;;-2.83;100.00;98294.36;110400;1242;59735;-73
2023/12/28 03:34:44;;;;;;;10.90;7.50;;;;;;;-2.85;100.00;98296.27;110444;1241;59672;-74
2023/12/28 03:37:19;;;;;;;12.70;9.90;;;;;;;-2.86;100.00;98297.30;110476;1240;69733;-74
2023/12/28 03:39:52;;;;;;;20.90;12.20;;;;;;;-2.87;100.00;98295.77;110251;1242;69253;-74
2023/12/28 03:42:25;;;;;;;14.30;10.00;;;;;;;-2.79;100.00;98287.88;110472;1241;68223;-74
2023/12/28 03:44:57;;;;;;;13.90;10.10;;;;;;;-2.71;100.00;98285.44;110446;1241;59722;-74
2023/12/28 03:47:30;;;;;;;19.10;13.00;;;;;;;-2.68;100.00;98281.34;110299;1241;59670;-74
2023/12/28 03:50:04;;;;;;;20.40;14.30;;;;;;;-2.75;100.00;98281.36;110354;1241;71394;-73
2023/12/28 03:52:40;;;;;;;18.30;12.60;;;;;;;-2.85;100.00;98282.44;110345;1241;68732;-75
2023/12/28 03:55:11;;;;;;;17.90;11.30;;;;;;;-2.91;100.00;98289.65;110396;1241;69146;-74
2023/12/28 03:57:46;;;;;;;19.70;12.20;;;;;;;-2.97;100.00;98290.86;110272;1240;60184;-74
2023/12/28 04:00:18;;;;;;;18.20;12.70;;;;;;;-2.99;100.00;98286.45;110443;1241;59631;-74
2023/12/28 04:02:48;;;;;;;15.50;10.30;;;;;;;-3.02;100.00;98282.02;110363;1241;71386;-73
2023/12/28 04:05:21;;;;;;;14.30;10.10;;;;;;;-3.03;100.00;98278.11;110185;1242;69249;-74
2023/12/28 04:07:51;;;;;;;12.20;8.30;;;;;;;-3.04;100.00;98274.53;110380;1241;69164;-74
2023/12/28 04:10:31;;;;;;;11.40;9.20;;;;;;;-3.03;100.00;98286.80;110269;1241;59703;-74
2023/12/28 04:13:01;;;;;;;10.60;7.40;;;;;;;-3.03;100.00;98290.90;110306;1242;59698;-75
2023/12/28 04:15:32;;;;;;;13.80;9.40;;;;;;;-3.01;100.00;98295.14;110330;1241;71414;-75
2023/12/28 04:18:05;;;;;;;14.40;9.70;;;;;;;-3.02;100.00;98297.89;110384;1241;69332;-74
2023/12/28 04:20:37;;;;;;;12.90;10.00;;;;;;;-3.07;100.00;98295.68;110201;1241;69213;-74
2023/12/28 04:23:09;;;;;;;20.70;14.70;;;;;;;-3.11;100.00;98290.42;109833;1245;59670;-75
2023/12/28 04:25:45;;;;;;;20.90;13.00;;;;;;;-3.18;100.00;98282.77;110252;1242;59669;-74
2023/12/28 04:28:19;;;;;;;30.30;18.60;;;;;;;-3.25;100.00;98289.63;110355;1241;71401;-74
2023/12/28 04:30:50;;;;;;;20.80;14.30;;;;;;;-3.33;100.00;98286.77;110257;1240;68637;-80
2023/12/28 04:33:23;;;;;;;23.80;15.10;;;;;;;-3.39;100.00;98288.48;110306;1241;68507;-79
2023/12/28 04:35:53;;;;;;;;;;;;;;;-3.45;100.00;98292.08;110244;1241;59682;-78
2023/12/28 04:38:26;;;;;;;18.70;11.80;;;;;;;-3.47;100.00;98290.38;110320;1242;59737;-76
2023/12/28 04:40:59;;;;;;;19.40;14.20;;;;;;;-3.49;100.00;98289.03;110429;1241;70615;-77
2023/12/28 04:43:31;;;;;;;30.30;18.30;;;;;;;-3.48;100.00;98289.02;110238;1245;68233;-78
2023/12/28 04:46:06;;;;;;;23.50;14.70;;;;;;;-3.47;100.00;98285.61;110267;1241;68629;-78
2023/12/28 04:48:38;;;;;;;23.60;13.90;;;;;;;-3.44;100.00;98284.58;110413;1239;59704;-78
2023/12/28 04:51:08;;;;;;;18.00;12.60;;;;;;;-3.42;100.00;98282.00;110279;1242;60108;-77
2023/12/28 04:53:39;;;;;;;18.90;11.70;;;;;;;-3.40;100.00;98278.42;110409;1241;70832;-78
2023/12/28 04:56:12;;;;;;;19.30;13.50;;;;;;;-3.36;100.00;98276.55;110299;1241;68554;-78
2023/12/28 04:58:43;;;;;;;16.00;10.80;;;;;;;-3.33;100.00;98271.75;110254;1242;69252;-77
2023/12/28 05:01:14;;;;;;;15.00;11.80;;;;;;;-3.31;100.00;98270.21;110315;1241;60088;-77
2023/12/28 05:03:45;;;;;;;15.10;10.40;;;;;;;-3.28;100.00;98267.98;110385;1241;59640;-77
2023/12/28 05:06:16;;;;;;;15.40;11.40;;;;;;;-3.26;100.00;98270.71;110343;1240;71341;-77
2023/12/28 05:08:47;;;;;;;13.50;9.50;;;;;;;-3.25;100.00;98271.55;110336;1240;68498;-78
2023/12/28 05:11:17;;;;;;;13.60;8.50;;;;;;;-3.22;100.00;98275.13;110302;1241;69356;-77
2023/12/28 05:13:47;;;;;;;14.10;8.90;;;;;;;-3.20;100.00;98273.05;110258;1242;59686;-77
2023/12/28 05:16:17;;;;;;;;;;;;;;;-3.18;100.00;98271.70;110367;1241;59672;-78
2023/12/28 05:18:48;;;;;;;9.50;7.30;;;;;;;-3.17;100.00;98273.91;110436;1241;71586;-78
2023/12/28 05:21:20;;;;;;;12.50;8.30;;;;;;;-3.15;100.00;98266.89;110303;1242;69072;-77
2023/12/28 05:23:51;;;;;;;11.60;8.00;;;;;;;-3.14;100.00;98266.57;110317;1242;69301;-78
2023/12/28 05:26:23;;;;;;;13.20;10.40;;;;;;;-3.12;100.00;98261.27;110281;1241;59671;-77
2023/12/28 05:28:53;;;;;;;13.00;9.40;;;;;;;-3.09;100.00;98262.11;110334;1239;59631;-77
2023/12/28 05:31:24;;;;;;;14.30;10.00;;;;;;;-3.07;100.00;98264.48;110334;1241;70666;-77
2023/12/28 05:33:58;;;;;;;12.20;9.10;;;;;;;-3.09;100.00;98265.34;110307;1241;69203;-77
2023/12/28 05:36:29;;;;;;;14.70;8.40;;;;;;;-3.14;100.00;98268.27;110287;1240;68529;-77
2023/12/28 05:38:59;;;;;;;14.70;10.70;;;;;;;-3.17;100.00;98270.33;110303;1242;59747;-77
2023/12/28 05:41:28;;;;;;;14.10;9.20;;;;;;;-3.21;100.00;98273.92;110334;1241;59650;-76
2023/12/28 05:43:58;;;;;;;14.80;11.00;;;;;;;-3.23;100.00;98269.34;110285;1241;71387;-77
2023/12/28 05:46:29;;;;;;;15.30;10.50;;;;;;;-3.25;100.00;98265.23;110342;1243;69145;-76
2023/12/28 05:48:59;;;;;;;14.10;10.30;;;;;;;-3.24;100.00;98268.64;110285;1241;69868;-77
2023/12/28 05:51:30;;;;;;;16.20;9.50;;;;;;;-3.24;100.00;98272.06;110315;1242;59722;-77
2023/12/28 05:53:59;;;;;;;12.30;9.00;;;;;;;-3.23;100.00;98273.94;110273;1241;60513;-78
2023/12/28 05:56:29;;;;;;;;;;;;;;;-3.32;100.00;98281.45;110342;1242;71651;-78
2023/12/28 05:58:59;;;;;;;13.20;8.60;;;;;;;-3.46;100.00;98283.40;110297;1241;68488;-76
2023/12/28 06:01:29;;;;;;;17.70;11.40;;;;;;;-3.46;100.00;98282.55;110316;1240;69245;-76
2023/12/28 06:03:58;;;;;;;14.50;10.30;;;;;;;-3.48;100.00;98279.47;110284;1241;59683;-76
2023/12/28 06:06:28;;;;;;;16.00;10.90;;;;;;;-3.49;100.00;98280.33;110339;1239;59734;-76
2023/12/28 06:08:58;;;;;;;15.90;9.60;;;;;;;-3.49;100.00;98281.18;110309;1241;71856;-76
2023/12/28 06:11:27;;;;;;;19.10;13.60;;;;;;;-3.49;100.00;98283.58;110293;1241;69791;-74
2023/12/28 06:13:57;;;;;;;15.30;10.60;;;;;;;-3.48;100.00;98284.59;110322;1241;68571;-76
2023/12/28 06:16:27;;;;;;;16.50;10.70;;;;;;;-3.49;100.00;98284.93;110264;1241;59731;-76
2023/12/28 06:18:56;;;;;;;12.60;8.70;;;;;;;-3.48;100.00;98290.73;110294;1248;59672;-76
2023/12/28 06:21:26;;;;;;;12.00;9.80;;;;;;;-3.48;100.00;98290.54;110261;1241;71482;-77
2023/12/28 06:23:56;;;;;;;14.80;10.30;;;;;;;-3.46;100.00;98289.86;110326;1242;69215;-77
2023/12/28 06:26:26;;;;;;;15.80;9.70;;;;;;;-3.41;100.00;98292.23;110271;1241;69387;-78
2023/12/28 06:28:56;;;;;;;16.10;10.80;;;;;;;-3.33;100.00;98296.30;110314;1241;59660;-78
2023/12/28 06:31:27;;;;;;;16.70;11.20;;;;;;;-3.21;100.00;98294.73;110321;1241;59646;-77
2023/12/28 06:33:56;;;;;;;;;;;;;;;-3.12;100.00;98292.81;110355;1241;69957;-79
2023/12/28 06:36:27;;;;;;;22.30;13.70;;;;;;;-3.01;100.00;98297.38;110346;1242;69210;-77
2023/12/28 06:38:57;;;;;;;;;;;;;;;-2.95;100.00;98298.02;110442;1241;69311;-79
2023/12/28 06:41:27;;;;;;;15.10;10.60;;;;;;;-2.87;100.00;98309.24;110500;1241;59662;-78
2023/12/28 06:43:56;;;;;;;21.60;14.50;;;;;;;-2.80;100.00;98310.23;110435;1241;59737;-79
2023/12/28 06:46:26;;;;;;;25.40;14.50;;;;;;;-2.73;100.00;98313.44;110441;1241;71375;-78
2023/12/28 06:48:56;;;;;;;23.50;15.10;;;;;;;-2.66;100.00;98314.76;110316;1242;69316;-78
2023/12/28 06:51:26;;;;;;;24.50;15.70;;;;;;;-2.56;100.00;98321.36;110366;1242;69248;-78
2023/12/28 06:53:56;;;;;;;26.00;17.20;;;;;;;-2.46;100.00;98316.86;110411;1240;59737;-78
2023/12/28 06:56:25;;;;;;;27.10;16.60;;;;;;;-2.39;100.00;98313.91;110438;1240;59678;-78
2023/12/28 06:58:55;;;;;;;20.40;14.70;;;;;;;-2.32;100.00;98320.69;110419;1241;71399;-78
2023/12/28 07:01:24;;;;;;;21.90;14.20;;;;;;;-2.24;100.00;98320.63;110361;1240;68505;-79
2023/12/28 07:03:54;;;;;;;23.90;14.80;;;;;;;-2.15;100.00;98320.22;110350;1241;68436;-79
2023/12/28 07:06:23;;;;;;;20.60;13.60;;;;;;;-2.03;100.00;98315.01;110383;1242;59702;-79
2023/12/28 07:08:53;;;;;;;27.60;18.60;;;;;;;-1.87;100.00;98311.11;110435;1241;59660;-79
2023/12/28 07:11:22;;;;;;;25.60;18.60;;;;;;;-1.68;100.00;98306.65;110435;1240;70628;-78
2023/12/28 07:13:53;;;;;;;27.70;20.50;;;;;;;-1.50;100.00;98309.05;110403;1242;69235;-78
2023/12/28 07:16:22;;;;;;;37.70;25.60;;;;;;;-1.44;100.00;98316.86;110320;1241;69844;-79
2023/12/28 07:18:51;;;;;;;33.70;24.00;;;;;;;-1.36;100.00;98321.20;110319;1240;60175;-79
2023/12/28 07:21:21;;;;;;;31.20;21.10;;;;;;;-1.21;100.00;98328.91;110195;1245;59682;-76
2023/12/28 07:23:50;;;;;;;25.40;19.00;;;;;;;-1.01;100.00;98324.59;110318;1242;71396;-77
2023/12/28 07:26:20;;;;;;;28.00;20.40;;;;;;;-0.73;100.00;98326.28;110341;1241;69852;-78
2023/12/28 07:28:49;;;;;;;33.40;21.30;;;;;;;-0.44;100.00;98325.54;110260;1242;69405;-78
2023/12/28 07:31:26;;;;;;;42.30;26.60;;;;;;;-0.11;100.00;98322.11;110276;1241;59672;-78
2023/12/28 07:33:56;;;;;;;44.80;29.90;;;;;;;0.20;100.00;98314.42;110385;1239;59689;-80
2023/12/28 07:36:26;;;;;;;44.80;31.20;;;;;;;0.48;100.00;98308.45;110318;1241;72371;-79
2023/12/28 07:38:56;;;;;;;56.50;37.50;;;;;;;0.66;100.00;98305.55;110475;1241;69795;-80
2023/12/28 07:41:26;;;;;;;54.10;35.90;;;;;;;0.59;100.00;98302.41;110383;1241;69379;-80
2023/12/28 07:43:55;;;;;;;51.50;32.50;;;;;;;0.58;100.00;98300.54;110367;1241;59747;-80
2023/12/28 07:46:24;;;;;;;46.80;33.90;;;;;;;0.62;100.00;98297.40;110412;1241;59695;-80
2023/12/28 07:48:53;;;;;;;51.00;34.60;;;;;;;0.74;100.00;98304.19;110401;1241;71355;-80
2023/12/28 07:51:23;;;;;;;45.40;31.40;;;;;;;0.89;100.00;98304.76;110384;1241;69791;-80
2023/12/28 07:53:52;;;;;;;42.40;28.70;;;;;;;0.93;100.00;98308.61;110383;1242;68713;-80
2023/12/28 07:56:22;;;;;;;37.90;26.20;;;;;;;1.05;100.00;98311.64;110353;1240;59706;-79
2023/12/28 07:58:51;;;;;;;29.70;21.30;;;;;;;1.12;100.00;98314.06;110317;1242;59693;-80
2023/12/28 08:01:22;;;;;;;27.90;21.20;;;;;;;1.25;100.00;98313.29;110346;1242;71311;-80
2023/12/28 08:03:51;;;;;;;26.40;19.50;;;;;;;1.35;100.00;98313.94;110413;1242;69695;-78
2023/12/28 08:06:21;;;;;;;28.60;21.60;;;;;;;1.44;100.00;98309.10;110322;1241;69861;-79
2023/12/28 08:08:50;;;;;;;43.00;32.70;;;;;;;1.51;100.00;98306.02;110331;1242;59696;-78
2023/12/28 08:11:19;;;;;;;56.20;39.10;;;;;;;1.73;100.00;98306.39;110453;1242;59675;-78
2023/12/28 08:13:49;;;;;;;46.80;36.40;;;;;;;1.78;100.00;98304.20;110352;1241;70599;-77
2023/12/28 08:16:18;;;;;;;44.00;33.10;;;;;;;1.91;100.00;98309.39;110330;1241;69806;-78
2023/12/28 08:18:47;;;;;;;40.90;31.90;;;;;;;2.08;100.00;98307.45;110296;1242;69201;-78
2023/12/28 08:21:16;;;;;;;39.30;30.30;;;;;;;2.11;100.00;98304.45;110365;1241;59730;-78
2023/12/28 08:23:46;;;;;;;42.30;31.10;;;;;;;2.27;100.00;98298.20;110336;1241;59655;-77
2023/12/28 08:26:15;;;;;;;45.10;31.90;;;;;;;2.54;100.00;98300.05;110370;1240;71111;-78
2023/12/28 08:28:45;;;;;;;38.70;31.40;;;;;;;2.92;100.00;98298.86;110345;1246;68643;-77
2023/12/28 08:31:14;;;;;;;33.50;27.80;;;;;;;3.40;100.00;98304.38;110377;1242;69260;-78
2023/12/28 08:33:43;;;;;;;38.70;29.30;;;;;;;3.58;99.73;98295.21;110380;1239;59764;-77
2023/12/28 08:36:13;;;;;;;38.20;29.90;;;;;;;3.80;99.11;98286.77;110408;1241;59647;-78
2023/12/28 08:38:43;;;;;;;35.10;29.10;;;;;;;4.33;97.33;98290.89;110312;1241;71968;-79
2023/12/28 08:41:20;;;;;;;32.10;27.30;;;;;;;4.43;94.48;98285.38;110329;1242;68807;-78
2023/12/28 08:43:50;;;;;;;34.60;28.30;;;;;;;4.71;92.71;98282.35;110248;1242;68570;-77
2023/12/28 08:46:21;;;;;;;;;;;;;;;4.83;92.36;98279.31;110303;1241;59663;-78
2023/12/28 08:48:51;;;;;;;34.60;29.00;;;;;;;5.25;94.06;98274.52;110305;1241;59654;-77
2023/12/28 08:51:21;;;;;;;36.00;29.00;;;;;;;5.63;96.97;98268.90;110325;1241;70488;-78
2023/12/28 08:53:51;;;;;;;34.40;26.20;;;;;;;5.42;89.32;98266.94;110343;1242;70193;-78
2023/12/28 08:56:21;;;;;;;31.70;26.30;;;;;;;5.22;90.86;98262.16;110385;1241;69715;-78
2023/12/28 08:58:52;;;;;;;29.60;24.80;;;;;;;5.48;90.14;98257.19;110325;1241;59689;-78
2023/12/28 09:01:22;;;;;;;28.60;25.50;;;;;;;5.72;89.83;98260.95;110365;1241;59756;-78
2023/12/28 09:03:54;;;;;;;26.80;22.90;;;;;;;5.96;87.97;98254.79;110426;1240;71944;-78
2023/12/28 09:06:23;;;;;;;32.80;26.80;;;;;;;6.20;88.19;98255.73;110322;1240;68305;-78
2023/12/28 09:08:54;;;;;;;28.00;23.40;;;;;;;6.63;85.44;98251.80;110357;1241;69163;-78
2023/12/28 09:11:23;;;;;;;28.40;23.70;;;;;;;7.09;84.50;98245.42;110312;1241;59753;-78
2023/12/28 09:13:52;;;;;;;32.90;25.60;;;;;;;7.10;82.62;98243.27;110338;1243;59705;-78
2023/12/28 09:16:21;;;;;;;31.10;25.60;;;;;;;7.49;82.21;98243.05;110330;1241;72223;-77
2023/12/28 09:18:50;;;;;;;29.30;25.40;;;;;;;7.60;81.17;98246.86;110312;1240;69629;-78
2023/12/28 09:21:20;;;;;;;;;;;;;;;7.94;80.92;98248.36;110319;1241;68831;-78
2023/12/28 09:23:50;;;;;;;25.90;20.50;;;;;;;8.06;80.21;98244.45;110318;1241;59686;-77
2023/12/28 09:26:19;;;;;;;20.60;18.40;;;;;;;8.03;79.65;98234.56;110345;1241;59740;-78
2023/12/28 09:28:49;;;;;;;19.30;16.00;;;;;;;8.08;76.85;98227.69;110340;1240;70659;-78
2023/12/28 09:31:18;;;;;;;18.30;15.30;;;;;;;8.40;74.32;98219.20;110334;1241;68440;-77
2023/12/28 09:33:49;;;;;;;19.70;16.80;;;;;;;8.81;73.24;98215.84;110300;1243;69249;-78
2023/12/28 09:36:18;;;;;;;17.20;15.10;;;;;;;9.58;75.88;98213.17;110291;1241;59734;-78
2023/12/28 09:38:48;;;;;;;16.80;15.10;;;;;;;9.70;70.21;98209.91;110390;1241;59653;-78
2023/12/28 09:41:22;;;;;;;15.40;13.80;;;;;;;9.65;69.72;98208.61;110384;1241;71964;-79
2023/12/28 09:44:00;;;;;;;16.80;15.10;;;;;;;9.56;69.93;98211.77;110356;1242;69792;-78
2023/12/28 09:46:29;;;;;;;15.40;13.80;;;;;;;9.61;69.76;98211.13;110347;1240;69270;-78
2023/12/28 09:48:59;;;;;;;14.60;13.10;;;;;;;10.13;68.40;98207.63;110420;1241;59700;-77
2023/12/28 09:51:28;;;;;;;13.30;11.90;;;;;;;11.24;68.62;98205.82;110396;1241;59657;-78
2023/12/28 09:53:57;;;;;;;14.20;12.30;;;;;;;11.75;66.63;98197.64;110432;1241;69750;-77
2023/12/28 09:56:27;;;;;;;12.80;11.50;;;;;;;12.34;62.42;98198.13;110436;1241;69191;-77
2023/12/28 09:58:59;;;;;;;11.70;10.40;;;;;;;12.53;61.15;98191.40;110354;1241;67811;-78
2023/12/28 10:01:28;;;;;;;12.30;10.80;;;;;;;12.77;58.28;98173.02;110345;1241;59710;-78
2023/12/28 10:03:58;;;;;;;12.90;11.30;;;;;;;13.09;56.65;98170.02;110157;1240;59747;-78
2023/12/28 10:06:27;;;;;;;11.60;10.40;;;;;;;13.39;54.36;98168.95;110398;1241;71362;-78
2023/12/28 10:08:57;;;;;;;11.10;9.90;;;;;;;14.02;53.50;98164.69;110376;1248;68491;-78
2023/12/28 10:11:26;;;;;;;12.20;9.60;;;;;;;14.62;51.50;98150.85;110308;1241;69177;-78
2023/12/28 10:13:57;;;;;;;9.70;8.40;;;;;;;14.38;51.08;98146.04;110295;1242;59724;-77
2023/12/28 10:16:28;;;;;;;8.80;7.70;;;;;;;15.47;51.31;98133.02;110310;1241;59753;-77
2023/12/28 10:19:00;;;;;;;10.50;9.10;;;;;;;15.96;49.28;98138.72;110290;1241;71375;-77
2023/12/28 10:21:29;;;;;;;8.90;7.60;;;;;;;15.66;46.90;98132.73;110339;1239;68227;-77
2023/12/28 10:23:58;;;;;;;9.00;7.70;;;;;;;16.43;47.58;98124.35;110296;1241;69294;-77
2023/12/28 10:26:28;;;;;;;9.30;7.20;;;;;;;16.76;43.74;98122.95;110319;1248;59737;-78
2023/12/28 10:28:59;;;;;;;;;;;;;;;16.92;45.28;98120.66;110382;1241;59688;-77
2023/12/28 10:31:29;;;;;;;6.70;6.00;;;;;;;16.99;41.65;98120.03;110349;1241;71357;-76
2023/12/28 10:34:03;;;;;;;6.10;5.50;;;;;;;16.98;43.28;98116.89;110347;1241;69330;-76
2023/12/28 10:36:36;;;;;;;6.30;5.70;;;;;;;16.22;43.57;98116.30;110430;1241;69852;-74
2023/12/28 10:39:11;;;;;;;7.90;6.40;;;;;;;15.81;44.30;98108.33;110509;1241;59747;-76
2023/12/28 10:41:42;;;;;;;6.50;5.40;;;;;;;16.50;43.51;98101.94;110638;1241;59630;-76
2023/12/28 10:44:17;;;;;;;7.10;6.40;;;;;;;16.79;43.69;98096.96;110635;1244;71990;-75
2023/12/28 10:46:51;;;;;;;6.90;5.70;;;;;;;17.01;42.30;98090.08;110642;1241;69038;-76
2023/12/28 10:49:24;;;;;;;6.30;5.70;;;;;;;17.01;43.18;98091.10;110549;1248;69293;-78
2023/12/28 10:51:55;;;;;;;5.70;4.70;;;;;;;17.17;41.70;98084.43;110478;1241;59739;-76
2023/12/28 10:54:59;;;;;;;6.40;5.10;;;;;;;17.14;42.91;98077.32;110516;1241;59763;-77
2023/12/28 10:57:44;;;;;;;7.00;6.30;;;;;;;17.65;41.66;98074.48;110473;1241;71964;-77
2023/12/28 11:00:17;;;;;;;5.10;4.60;;;;;;;18.30;41.17;98071.49;110376;1242;69864;-77
2023/12/28 11:02:56;;;;;;;6.60;4.50;;;;;;;17.01;41.16;98066.73;110288;1242;69868;-77
2023/12/28 11:05:27;;;;;;;5.30;4.70;;;;;;;17.70;41.13;98062.95;109991;1241;500733;-77
2023/12/28 11:08:00;;;;;;;6.70;5.80;;;;;;;17.31;41.70;98064.30;110458;1241;59743;-76
2023/12/28 11:10:32;;;;;;;6.10;4.60;;;;;;;17.85;40.95;98063.66;110315;1241;70795;-77
2023/12/28 11:13:03;;;;;;;6.20;4.60;;;;;;;17.85;40.08;98056.64;110344;1241;69777;-75
2023/12/28 11:15:34;;;;;;;6.60;5.50;;;;;;;17.84;41.14;98056.89;110299;1241;69277;-75
2023/12/28 11:18:04;;;;;;;6.30;5.60;;;;;;;19.21;40.35;98054.27;110341;1242;59705;-79
2023/12/28 11:20:34;;;;;;;6.00;5.10;;;;;;;19.09;44.56;98052.68;110499;1242;59630;-78
2023/12/28 11:23:04;;;;;;;5.80;5.00;;;;;;;19.90;42.77;98051.77;110399;1242;71329;-78
2023/12/28 11:25:33;;;;;;;5.70;4.80;;;;;;;20.11;43.03;98046.95;110511;1242;69802;-79
2023/12/28 11:28:10;;;;;;;7.90;6.50;;;;;;;20.79;40.61;98038.55;110449;1241;69167;-80